Fort Walton Beach, FL (32547)

7:03 AM CST on December 20, 2014 (GMT -0600)
Cinco Bayou - Pocahontas Dr. | Change Station
CLOSE
Current Station
Personal Weather Station
Location: Fort Walton Beach, FL
Elevation: 16 ft
Nearby Weather Stations

Elev 16 ft 30.43 °N, 86.62 °W | Updated 34 seconds ago

Overcast
Overcast
49.5 °F
Feels Like 48 °F
N
4.0
Wind Variable Wind from NNE
Gusts 10.0 mph

Today
High -- | Low -- °F
--% Chance of Precip.
Yesterday
High -- | Low -- °F
Precip. -- in
6:38 AM 4:49 PM
Waning Crescent, 3% visible
Pressure 30.11 in
Visibility 10.0 miles
Clouds Overcast 3500 ft
Windchill 48 °F
Dew Point 48 °F
Humidity 94%
Rainfall 0.05 in
Snow Depth Not available.
UV 0 out of 12
Pollen .50 out of 12
Air Quality Not available.
Flu Activity Not available.
METAR KHRT 201258Z AUTO 04011KT 10SM OVC035 09/07 A3010 RMK AO2 RAE1234DZB1234E1236 SLP195 P0003 T00930072 $

More Conditions Fewer Conditions

Pressure 30.11 in
Visibility 10.0 miles
Clouds Overcast 3500 ft
Windchill 48 °F
Dew Point 48 °F
Humidity 94%
Rainfall 0.05 in
Snow Depth Not available.
UV 0 out of 12
Pollen .50 out of 12
Air Quality Not available.
Flu Activity Not available.
METAR KHRT 201258Z AUTO 04011KT 10SM OVC035 09/07 A3010 RMK AO2 RAE1234DZB1234E1236 SLP195 P0003 T00930072 $

More Conditions Fewer Conditions

10-Day Weather Forecast

Almanac

Astronomy

Dec. 20, 2014 Rise Set
Actual Time
Civil Twilight
Nautical Twilight
Astronomical Twilight
Moon
Length of Visible Light
Length of Day
Tomorrow will be .
, % of the Moon is Illuminated

Today's Extremes

State Highs State Lows

Community

WunderPhotos

Upload Photos

1,779,167 photos uploaded!

WunderBlogs® & News

Nearby

Air Quality

  Air Quality AQ Index Pollutant
Not available.

Snow Depth

Station Depth Elevation

Earthquake Activity

City Distance Mag. Time & Date
Minimum magnitude displayed is 2.5.

Coastal Water Temperatures

Place Temperature

Nearby Weather Stations